Time;durP1;ratioP1;P1;durP2;ratioP2;P2;SDS_P1;SDS_P2;PMS_P1;PMS_P2;Temp;Humidity;BMP_temperature;BMP_pressure;BME280_temperature;BME280_humidity;BME280_pressure;Samples;Min_cycle;Max_cycle;Signal;HPM_P1;HPM_P2
2021/01/22 00:01:47;;;;;;;0.70;0.50;;;10.80;99.90;;;11.67;100.00;147585.91;5021171;28;20985;-65
2021/01/22 00:04:14;;;;;;;0.70;0.60;;;10.70;99.90;;;11.72;100.00;147599.91;5012182;28;20452;-65
2021/01/22 00:06:43;;;;;;;0.70;0.70;;;10.80;99.90;;;11.78;100.00;147613.88;5010105;28;20437;-67
2021/01/22 00:09:10;;;;;;;0.70;0.60;;;10.80;99.90;;;11.90;100.00;147644.44;5010967;28;20451;-65
2021/01/22 00:11:38;;;;;;;0.70;0.60;;;10.80;99.90;;;11.88;100.00;147639.34;5012938;28;20424;-65
2021/01/22 00:14:05;;;;;;;0.70;0.70;;;10.80;99.90;;;11.85;100.00;147631.72;5010634;28;20471;-65
2021/01/22 00:16:32;;;;;;;0.70;0.60;;;10.90;99.90;;;11.81;100.00;147621.50;5000145;28;20558;-66
2021/01/22 00:18:59;;;;;;;0.70;0.70;;;10.80;99.90;;;11.69;100.00;147592.28;4993711;28;20441;-65
2021/01/22 00:21:29;;;;;;;0.70;0.60;;;10.90;99.90;;;11.81;100.00;147622.75;4991313;28;20441;-67
2021/01/22 00:23:57;;;;;;;0.70;0.70;;;10.90;99.90;;;11.82;100.00;147625.34;5001599;28;20483;-66
2021/01/22 00:26:24;;;;;;;0.70;0.70;;;11.00;99.90;;;11.97;100.00;147662.25;5000791;28;20472;-64
2021/01/22 00:28:52;;;;;;;0.70;0.60;;;11.10;99.90;;;11.96;100.00;147659.66;5008254;28;21000;-66
2021/01/22 00:31:19;;;;;;;1.13;1.03;;;11.10;99.90;;;12.01;100.00;147672.41;5010576;28;20481;-66
2021/01/22 00:33:46;;;;;;;0.70;0.70;;;11.10;99.90;;;11.85;100.00;147631.72;4996833;28;20427;-65
2021/01/22 00:36:13;;;;;;;0.70;0.70;;;11.10;99.90;;;11.95;100.00;147655.88;5012426;28;20484;-65
2021/01/22 00:38:40;;;;;;;0.70;0.70;;;11.10;99.90;;;12.08;100.00;147688.94;5012452;28;20473;-65
2021/01/22 00:41:07;;;;;;;0.70;0.60;;;11.20;99.90;;;12.07;100.00;147686.38;5012267;28;20914;-65
2021/01/22 00:43:34;;;;;;;0.70;0.60;;;11.10;99.90;;;12.15;100.00;147705.44;5012908;28;20450;-65
2021/01/22 00:46:03;;;;;;;0.70;0.60;;;11.20;99.90;;;11.98;100.00;147664.78;5011305;28;20450;-65
2021/01/22 00:48:37;;;;;;;0.70;0.70;;;11.20;99.90;;;12.06;100.00;147683.84;5011489;28;20515;-66
2021/01/22 00:51:04;;;;;;;0.70;0.60;;;11.20;99.90;;;12.09;100.00;147691.47;5011953;28;20801;-66
2021/01/22 00:53:31;;;;;;;0.70;0.60;;;11.30;99.90;;;12.06;100.00;147685.13;5018675;28;20460;-66
2021/01/22 00:55:59;;;;;;;0.70;0.60;;;11.30;99.90;;;12.16;100.00;147708.03;5009138;28;20465;-66
2021/01/22 00:58:33;;;;;;;0.70;0.60;;;11.40;99.90;;;12.23;100.00;147727.09;5012200;28;20452;-65
2021/01/22 01:01:26;;;;;;;0.70;0.63;;;11.40;99.90;;;12.15;100.00;147705.44;5027062;28;20949;-64
2021/01/22 01:03:58;;;;;;;0.73;0.70;;;11.30;99.90;;;12.07;100.00;147686.38;5031634;28;20966;-65
2021/01/22 01:06:26;;;;;;;0.80;0.80;;;11.30;99.90;;;12.05;100.00;147682.59;5028396;28;20449;-65
2021/01/22 01:08:55;;;;;;;0.70;0.60;;;11.30;99.90;;;12.12;100.00;147699.13;5004310;28;20502;-65
2021/01/22 01:11:42;;;;;;;0.70;0.70;;;11.30;99.90;;;12.03;100.00;147677.47;5011257;28;20489;-64
2021/01/22 01:14:35;;;;;;;0.70;0.60;;;11.30;99.90;;;12.06;100.00;147683.84;5014065;28;20967;-64
2021/01/22 01:17:03;;;;;;;0.70;0.67;;;11.20;99.90;;;11.94;100.00;147653.34;4995786;28;20503;-64
2021/01/22 01:19:30;;;;;;;0.70;0.70;;;11.30;99.90;;;11.91;100.00;147646.97;4996563;28;20434;-66
2021/01/22 01:21:57;;;;;;;0.70;0.67;;;11.20;99.90;;;11.99;100.00;147667.31;4998536;28;20473;-64
2021/01/22 01:24:24;;;;;;;0.70;0.60;;;11.10;99.90;;;11.99;100.00;147667.31;5015453;28;20515;-64
2021/01/22 01:26:51;;;;;;;0.70;0.60;;;11.20;99.90;;;11.92;100.00;147649.50;5030934;28;20449;-66
2021/01/22 01:29:18;;;;;;;0.70;0.60;;;11.20;99.90;;;11.82;100.00;147625.34;5030687;28;20481;-65
2021/01/22 01:31:45;;;;;;;0.70;0.60;;;11.10;99.90;;;11.87;100.00;147635.56;5014357;28;20476;-63
2021/01/22 01:34:13;;;;;;;0.70;0.60;;;11.00;99.90;;;11.69;100.00;147591.00;5016001;28;20462;-63
2021/01/22 01:36:40;;;;;;;0.73;0.70;;;10.90;99.90;;;11.78;100.00;147613.88;5007575;28;20548;-65
2021/01/22 01:39:07;;;;;;;0.70;0.63;;;10.90;99.90;;;11.89;100.00;147641.88;5021505;28;20938;-64
2021/01/22 01:41:34;;;;;;;0.67;0.57;;;10.90;99.90;;;11.74;100.00;147603.69;5013491;28;20473;-64
2021/01/22 01:44:01;;;;;;;0.80;0.80;;;10.90;99.90;;;11.80;100.00;147618.97;5014014;28;20473;-64
2021/01/22 01:46:29;;;;;;;0.70;0.70;;;11.00;99.90;;;11.79;100.00;147617.69;5014630;28;20458;-64
2021/01/22 01:48:57;;;;;;;0.70;0.60;;;10.90;99.90;;;11.65;100.00;147580.84;5015711;28;20494;-64
2021/01/22 01:51:25;;;;;;;0.70;0.60;;;10.90;99.90;;;11.63;100.00;147575.75;5015666;28;20924;-64
2021/01/22 01:53:53;;;;;;;0.70;0.67;;;10.80;99.90;;;11.68;100.00;147588.47;5004080;28;20475;-64
2021/01/22 01:56:20;;;;;;;0.70;0.60;;;10.80;99.90;;;11.50;100.00;147544.00;5011416;28;20489;-64
2021/01/22 01:58:47;;;;;;;0.70;0.60;;;10.70;99.90;;;11.65;100.00;147580.84;5014898;28;20464;-64
2021/01/22 02:01:17;;;;;;;0.70;0.60;;;10.80;99.90;;;11.45;100.00;147532.56;5000698;28;20493;-64
2021/01/22 02:03:45;;;;;;;0.70;0.70;;;10.70;99.90;;;11.27;100.00;147488.09;5014918;28;20931;-64
2021/01/22 02:06:12;;;;;;;0.70;0.60;;;10.60;99.90;;;11.07;100.00;147438.50;5015108;28;20438;-64
2021/01/22 02:08:41;;;;;;;0.70;0.60;;;10.20;99.90;;;10.87;100.00;147387.72;5008379;28;20587;-64
2021/01/22 02:11:13;;;;;;;0.70;0.60;;;9.90;99.90;;;10.55;100.00;147307.69;5015105;28;20922;-63
2021/01/22 02:13:41;;;;;;;0.70;0.60;;;9.40;99.90;;;9.92;100.00;147152.75;5014418;28;20469;-63
2021/01/22 02:16:10;;;;;;;0.70;0.60;;;8.80;99.90;;;9.18;100.00;146968.78;4996765;28;20939;-63
2021/01/22 02:18:40;;;;;;;0.70;0.60;;;8.20;99.90;;;8.90;100.00;146897.75;4995448;28;20494;-64
2021/01/22 02:21:21;;;;;;;0.70;0.57;;;7.80;99.90;;;8.77;100.00;146864.81;5001300;28;20536;-65
2021/01/22 02:23:52;;;;;;;0.70;0.60;;;7.70;99.90;;;8.63;100.00;146831.81;5009578;28;20432;-64
2021/01/22 02:27:01;;;;;;;0.77;0.70;;;7.50;99.90;;;8.49;100.00;146796.31;4995287;28;20999;-64
2021/01/22 02:29:31;;;;;;;0.70;0.60;;;7.40;99.90;;;8.44;100.00;146783.66;4987312;28;20522;-63
2021/01/22 02:32:04;;;;;;;0.70;0.60;;;7.30;99.90;;;8.28;100.00;146743.03;4997621;28;21815;-64
2021/01/22 02:34:34;;;;;;;0.70;0.60;;;7.10;99.90;;;8.26;100.00;146737.97;5013391;28;20822;-64
2021/01/22 02:37:06;;;;;;;0.70;0.60;;;7.00;99.90;;;7.94;100.00;146659.38;5008253;28;20455;-64
2021/01/22 02:39:37;;;;;;;0.63;0.60;;;7.00;99.90;;;7.92;100.00;146655.59;5008151;28;20444;-64
2021/01/22 02:42:08;;;;;;;0.70;0.50;;;6.90;99.90;;;7.91;100.00;146651.78;5030029;28;20934;-64
2021/01/22 02:44:36;;;;;;;0.60;0.50;;;6.80;99.90;;;7.83;100.00;146631.50;5027781;28;20465;-65
2021/01/22 02:47:08;;;;;;;0.70;0.50;;;6.70;99.90;;;7.72;100.00;146606.16;5014800;28;20523;-64
2021/01/22 02:49:35;;;;;;;0.63;0.60;;;6.60;99.90;;;7.49;100.00;146549.16;5014420;28;20532;-64
2021/01/22 02:52:03;;;;;;;0.60;0.60;;;6.40;99.90;;;7.38;100.00;146520.06;5014655;28;20433;-64
2021/01/22 02:54:30;;;;;;;0.70;0.60;;;6.20;99.90;;;7.23;100.00;146480.72;4997930;28;20446;-65
2021/01/22 02:57:17;;;;;;;0.67;0.60;;;6.00;99.90;;;7.01;100.00;145757.97;4996132;28;20459;-64
2021/01/22 02:59:58;;;;;;;2.20;1.17;;;5.80;99.90;;;6.80;100.00;144701.34;5011413;28;20561;-63
2021/01/22 03:02:33;;;;;;;0.60;0.60;;;5.60;99.90;;;6.63;100.00;143656.94;5014165;28;20418;-63
2021/01/22 03:05:02;;;;;;;0.60;0.50;;;5.40;99.90;;;6.58;100.00;142640.47;5029445;28;21031;-65
2021/01/22 03:07:39;;;;;;;0.70;0.60;;;5.30;99.90;;;6.53;100.00;141628.19;5006896;28;20934;-64
2021/01/22 03:10:09;;;;;;;0.60;0.60;;;5.20;99.90;;;6.45;100.00;140605.41;5012899;28;20444;-64
2021/01/22 03:12:37;;;;;;;0.60;0.60;;;5.20;99.90;;;6.36;100.00;139583.13;5012138;28;20521;-63
2021/01/22 03:15:06;;;;;;;0.63;0.60;;;5.20;99.90;;;6.33;100.00;138573.47;5014267;28;20503;-64
2021/01/22 03:17:32;;;;;;;0.63;0.50;;;5.10;99.90;;;6.35;100.00;137578.50;5011471;28;20460;-63
2021/01/22 03:19:59;;;;;;;0.70;0.60;;;5.10;99.90;;;6.37;100.00;136914.88;5009207;28;20442;-63
2021/01/22 03:22:28;;;;;;;0.60;0.50;;;5.00;99.90;;;6.28;100.00;135895.53;5001923;28;20926;-65
2021/01/22 03:24:55;;;;;;;0.60;0.60;;;5.00;99.90;;;6.23;100.00;134549.31;5001852;28;20465;-63
2021/01/22 03:27:22;;;;;;;1.10;1.10;;;5.00;99.90;;;6.34;100.00;134241.66;5012807;28;20441;-63
2021/01/22 03:29:49;;;;;;;0.63;0.60;;;4.90;99.90;;;6.24;100.00;133219.97;5005346;28;21047;-64
2021/01/22 03:32:16;;;;;;;0.70;0.60;;;4.90;99.90;;;6.14;100.00;132197.78;4994350;28;20800;-64
2021/01/22 03:34:43;;;;;;;0.60;0.50;;;4.90;99.90;;;6.22;100.00;131881.94;4995758;28;20442;-64
2021/01/22 03:37:10;;;;;;;0.70;0.60;;;4.90;99.90;;;6.10;100.00;130857.00;4998591;28;20445;-64
2021/01/22 03:39:38;;;;;;;0.60;0.60;;;4.80;99.90;;;6.15;100.00;130535.50;5028455;28;20770;-64
2021/01/22 03:42:05;;;;;;;0.60;0.53;;;4.80;99.90;;;6.10;100.00;129525.88;4994294;28;20435;-65
2021/01/22 03:44:32;;;;;;;0.60;0.60;;;4.80;99.90;;;6.08;100.00;128856.03;4993963;28;20457;-64
2021/01/22 03:47:00;;;;;;;0.60;0.50;;;4.70;99.90;;;6.02;100.00;128177.47;5012217;28;20477;-64
2021/01/22 03:49:27;;;;;;;0.67;0.60;;;4.70;99.90;;;6.06;100.00;127521.28;5013337;28;20474;-64
2021/01/22 03:51:54;;;;;;;0.60;0.52;;;4.70;99.90;;;5.85;100.00;127143.53;5012656;28;20512;-64
2021/01/22 03:54:21;;;;;;;0.70;0.70;;;4.70;99.90;;;5.80;100.00;126800.22;4999479;28;20188;-64
2021/01/22 03:56:48;;;;;;;0.60;0.50;;;4.70;99.90;;;6.03;100.00;127182.16;5013158;28;20454;-64
2021/01/22 03:59:15;;;;;;;0.60;0.50;;;4.70;99.90;;;6.02;100.00;126515.13;5011899;28;20949;-64
2021/01/22 04:01:42;;;;;;;0.70;0.60;;;4.70;99.90;;;5.97;100.00;125840.59;5013736;28;20418;-63
2021/01/22 04:04:09;;;;;;;0.60;0.50;;;4.70;99.90;;;5.77;100.00;125465.81;5003331;28;20450;-63
2021/01/22 04:06:37;;;;;;;0.73;0.73;;;4.60;99.90;;;5.93;100.00;125498.47;4998409;28;20533;-63
2021/01/22 04:09:04;;;;;;;0.60;0.60;;;4.60;99.90;;;5.89;100.00;125157.53;5010558;28;20474;-63
2021/01/22 04:11:32;;;;;;;0.60;0.50;;;4.70;99.90;;;5.86;100.00;124818.91;5013397;28;20418;-64
2021/01/22 04:13:59;;;;;;;0.60;0.50;;;4.60;99.90;;;5.96;100.00;124840.53;5012664;28;20464;-64
2021/01/22 04:16:25;;;;;;;0.60;0.60;;;4.70;99.90;;;5.98;100.00;124512.69;5012361;28;20495;-64
2021/01/22 04:18:52;;;;;;;0.60;0.50;;;4.70;99.90;;;6.01;100.00;124187.00;5001839;28;20447;-65
2021/01/22 04:21:20;;;;;;;0.60;0.60;;;4.70;99.90;;;5.89;100.00;123496.97;4992590;28;20423;-65
2021/01/22 04:23:47;;;;;;;0.60;0.50;;;4.70;99.90;;;5.79;100.00;122813.81;5005022;28;20219;-65
2021/01/22 04:26:14;;;;;;;0.60;0.60;;;4.60;99.90;;;5.80;100.00;122484.00;5011625;28;20434;-64
2021/01/22 04:28:41;;;;;;;0.60;0.50;;;4.70;99.90;;;5.90;100.00;122171.22;5003207;28;20971;-63
2021/01/22 04:31:08;;;;;;;0.60;0.60;;;4.60;99.90;;;5.81;100.00;121489.50;5010815;28;20191;-63
2021/01/22 04:33:35;;;;;;;0.60;0.50;;;4.70;99.90;;;5.73;100.00;121141.94;5005724;28;20946;-63
2021/01/22 04:36:03;;;;;;;0.60;0.50;;;4.70;99.90;;;5.75;100.00;121145.13;5010946;28;20461;-64
2021/01/22 04:38:31;;;;;;;0.60;0.60;;;4.60;99.90;;;5.82;100.00;120828.06;5015254;28;20438;-65
2021/01/22 04:40:59;;;;;;;0.60;0.50;;;4.60;99.90;;;5.80;100.00;120493.19;4999157;28;20434;-63
2021/01/22 04:43:26;;;;;;;0.60;0.60;;;4.60;99.90;;;5.94;100.00;120188.63;4996243;28;20454;-64
2021/01/22 04:45:54;;;;;;;0.60;0.50;;;4.70;99.90;;;5.72;100.00;119150.06;5012432;28;20541;-63
2021/01/22 04:48:22;;;;;;;0.60;0.60;;;4.70;99.90;;;5.68;100.00;119140.75;5014872;28;20446;-63
2021/01/22 04:50:52;;;;;;;0.60;0.60;;;4.60;99.90;;;5.71;100.00;119146.97;4996131;28;20457;-64
2021/01/22 04:53:25;;;;;;;0.60;0.50;;;4.60;99.90;;;5.70;100.00;118814.41;5009337;28;20499;-63
2021/01/22 04:55:54;;;;;;;0.60;0.50;;;4.60;99.90;;;5.72;100.00;118487.03;4996719;28;20466;-65
2021/01/22 04:58:23;;;;;;;0.60;0.50;;;4.70;99.90;;;5.69;100.00;118479.84;4997286;28;20419;-65
2021/01/22 05:00:50;;;;;;;0.60;0.60;;;4.70;99.90;;;5.65;100.00;117809.84;4997938;28;20853;-63
2021/01/22 05:03:19;;;;;;;0.60;0.60;;;4.60;99.90;;;5.57;100.00;117130.88;4995780;28;20993;-63
2021/01/22 05:05:47;;;;;;;0.60;0.60;;;4.60;99.90;;;5.58;100.00;116801.66;4999445;28;20453;-64
2021/01/22 05:08:14;;;;;;;0.60;0.60;;;4.60;99.90;;;5.77;100.00;116508.84;5015146;28;20437;-63
2021/01/22 05:10:41;;;;;;;0.60;0.50;;;4.60;99.90;;;5.57;100.00;115475.94;5031072;28;20437;-63
2021/01/22 05:13:10;;;;;;;0.60;0.60;;;4.60;99.90;;;5.55;100.00;115139.84;5015135;28;20544;-64
2021/01/22 05:15:37;;;;;;;0.60;0.50;;;4.60;99.90;;;5.47;100.00;114461.88;5014582;28;20462;-64
2021/01/22 05:18:06;;;;;;;0.60;0.60;;;4.60;99.90;;;5.55;100.00;114147.75;5016068;28;20438;-64
2021/01/22 05:20:35;;;;;;;0.60;0.60;;;4.60;99.90;;;5.57;100.00;113819.78;5015504;28;20761;-64
2021/01/22 05:23:04;;;;;;;0.60;0.60;;;4.60;99.90;;;5.67;100.00;113508.56;5011047;28;20191;-64
2021/01/22 05:25:32;;;;;;;0.60;0.60;;;4.60;99.90;;;5.69;100.00;113180.53;5008111;28;20433;-64
2021/01/22 05:28:00;;;;;;;0.60;0.60;;;4.60;99.90;;;5.51;100.00;112485.44;5013476;28;20496;-64
2021/01/22 05:30:30;;;;;;;0.63;0.60;;;4.60;99.90;;;5.64;100.00;112509.88;5013434;28;20457;-64
2021/01/22 05:33:16;;;;;;;0.60;0.50;;;4.60;99.90;;;5.58;100.00;112167.31;5004952;28;20802;-64
2021/01/22 05:35:43;;;;;;;0.60;0.50;;;4.60;99.90;;;5.61;100.00;111842.38;5001776;28;20492;-64
2021/01/22 05:38:10;;;;;;;0.60;0.60;;;4.60;99.90;;;5.76;100.00;111871.50;5003750;28;20434;-64
2021/01/22 05:40:47;;;;;;;0.60;0.50;;;4.70;99.90;;;5.74;100.00;111204.97;5011914;28;20838;-63
2021/01/22 05:43:14;;;;;;;0.60;0.50;;;4.70;99.90;;;5.79;100.00;111215.63;5030405;28;20480;-64
2021/01/22 05:45:44;;;;;;;0.60;0.60;;;4.70;99.90;;;5.72;100.00;110540.56;5015513;28;20961;-64
2021/01/22 05:48:22;;;;;;;0.60;0.50;;;4.70;99.90;;;5.65;100.00;110196.47;5014048;28;20437;-63
2021/01/22 05:50:55;;;;;;;0.60;0.60;;;4.60;99.90;;;5.64;100.00;109863.91;5013163;28;20190;-63
2021/01/22 05:53:23;;;;;;;0.70;0.70;;;4.60;99.90;;;5.71;100.00;109877.28;5008730;28;20493;-63
2021/01/22 05:56:09;;;;;;;0.80;0.80;;;4.60;99.90;;;5.61;100.00;109197.06;4996955;28;20431;-64
2021/01/22 05:58:38;;;;;;;0.60;0.50;;;4.70;99.90;;;5.63;100.00;108870.28;5013000;28;20641;-64
2021/01/22 06:01:08;;;;;;;0.60;0.60;;;4.60;99.90;;;5.62;100.00;108867.47;5026026;28;20454;-65
2021/01/22 06:03:37;;;;;;;0.60;0.60;;;4.60;99.90;;;5.63;100.00;108539.78;5028657;28;20488;-64
2021/01/22 06:06:06;;;;;;;0.60;0.57;;;4.60;99.90;;;5.70;100.00;108553.00;5013860;28;20440;-64
2021/01/22 06:08:46;;;;;;;0.60;0.50;;;4.70;99.90;;;5.77;100.00;108235.66;4999456;28;20481;-64
2021/01/22 06:11:15;;;;;;;0.60;0.60;;;4.70;99.90;;;5.65;100.00;107552.22;5001371;28;20520;-65
2021/01/22 06:13:46;;;;;;;0.60;0.60;;;4.70;99.90;;;5.84;100.00;107916.38;5010287;28;20820;-63
2021/01/22 06:16:17;;;;;;;0.60;0.60;;;4.70;99.90;;;5.82;100.00;107914.53;5010310;28;20462;-64
2021/01/22 06:18:53;;;;;;;0.60;0.60;;;4.70;99.90;;;5.87;100.00;107922.03;5012911;28;20199;-63
2021/01/22 06:21:25;;;;;;;0.60;0.50;;;4.70;99.90;;;5.69;100.00;107228.34;5017067;28;20449;-64
2021/01/22 06:23:53;;;;;;;0.60;0.50;;;4.70;99.90;;;5.78;100.00;107576.53;5013088;28;20531;-64
2021/01/22 06:26:22;;;;;;;0.60;0.50;;;4.70;99.90;;;5.83;100.00;107915.44;5013182;28;20807;-64
2021/01/22 06:28:50;;;;;;;0.60;0.57;;;4.70;99.90;;;5.86;100.00;108251.66;5006036;28;20464;-64
2021/01/22 06:31:19;;;;;;;0.60;0.60;;;4.70;99.90;;;5.81;100.00;108243.16;5010966;28;20184;-63
2021/01/22 06:33:47;;;;;;;0.60;0.60;;;4.70;99.90;;;5.83;100.00;108576.59;5005420;28;20647;-66
2021/01/22 06:36:16;;;;;;;0.60;0.60;;;4.80;99.90;;;5.90;100.00;109250.19;5004385;28;20207;-64
2021/01/22 06:38:43;;;;;;;0.60;0.50;;;4.80;99.90;;;5.87;100.00;109575.19;5007238;28;20237;-63
2021/01/22 06:41:11;;;;;;;0.60;0.60;;;4.80;99.90;;;5.94;100.00;110581.91;5014077;28;20422;-65
2021/01/22 06:43:39;;;;;;;0.60;0.50;;;4.80;99.90;;;5.90;100.00;111234.94;5011791;28;20462;-63
2021/01/22 06:46:12;;;;;;;0.60;0.50;;;4.80;99.90;;;5.89;100.00;111563.88;5011515;28;20476;-63
2021/01/22 06:48:52;;;;;;;0.70;0.60;;;4.80;99.90;;;5.79;100.00;111877.34;5014114;28;20426;-63
2021/01/22 06:51:20;;;;;;;0.60;0.60;;;4.80;99.90;;;5.87;100.00;112883.88;5011483;28;20449;-63
2021/01/22 06:54:10;;;;;;;0.60;0.50;;;4.80;99.90;;;5.90;100.00;113551.91;5004249;28;20473;-65
2021/01/22 06:57:08;;;;;;;0.60;0.60;;;4.80;99.90;;;5.89;100.00;114544.38;5005678;28;20989;-65
2021/01/22 06:59:37;;;;;;;0.60;0.60;;;4.80;99.90;;;5.94;100.00;115547.16;5011142;28;20973;-63
2021/01/22 07:02:41;;;;;;;0.70;0.68;;;4.80;99.90;;;5.96;100.00;116876.72;5028101;28;21036;-64
2021/01/22 07:05:45;;;;;;;0.60;0.60;;;4.80;99.90;;;6.05;100.00;118221.25;5001723;28;20234;-65
2021/01/22 07:08:12;;;;;;;0.60;0.50;;;4.90;99.90;;;6.02;100.00;118547.72;4998182;28;20431;-63
2021/01/22 07:11:02;;;;;;;0.60;0.50;;;4.90;99.90;;;6.15;100.00;120232.44;4993023;28;20438;-65
2021/01/22 07:13:36;;;;;;;0.60;0.50;;;5.00;99.90;;;6.20;100.00;120906.69;5011304;28;20477;-64
2021/01/22 07:16:10;;;;;;;0.60;0.53;;;5.00;99.90;;;6.13;100.00;121555.94;5008801;28;20437;-64
2021/01/22 07:18:51;;;;;;;0.80;0.80;;;5.00;99.90;;;6.00;100.00;122192.41;5011121;28;20880;-63
2021/01/22 07:21:37;;;;;;;0.60;0.50;;;5.00;99.90;;;6.08;100.00;123204.53;5010792;28;20918;-64
2021/01/22 07:24:12;;;;;;;0.60;0.53;;;5.00;99.90;;;6.05;100.00;124195.59;5006161;28;20549;-66
2021/01/22 07:26:44;;;;;;;0.60;0.60;;;5.00;99.90;;;6.05;100.00;124860.03;5011288;28;20457;-64
2021/01/22 07:29:24;;;;;;;0.60;0.50;;;5.00;99.90;;;6.16;100.00;126213.38;5013130;28;20699;-63
2021/01/22 07:31:58;;;;;;;0.60;0.50;;;5.00;99.90;;;6.21;100.00;126556.78;5008237;28;20431;-64
2021/01/22 07:34:56;;;;;;;0.60;0.60;;;5.00;99.90;;;6.10;100.00;127197.59;4994032;28;20415;-64
2021/01/22 07:37:25;;;;;;;0.63;0.60;;;5.00;99.90;;;6.06;100.00;128186.34;5000158;28;20554;-64
2021/01/22 07:39:54;;;;;;;0.60;0.60;;;5.00;99.90;;;6.23;100.00;128556.81;5012054;28;20441;-64
2021/01/22 07:42:23;;;;;;;0.60;0.50;;;5.00;99.90;;;6.29;100.00;129235.69;5000566;28;20454;-63
2021/01/22 07:44:53;;;;;;;0.60;0.60;;;5.10;99.90;;;6.32;100.00;129573.00;5010469;28;20211;-64
2021/01/22 07:47:27;;;;;;;0.60;0.60;;;5.20;99.90;;;6.26;100.00;130559.25;5009394;28;20433;-64
2021/01/22 07:49:58;;;;;;;0.60;0.60;;;5.20;99.90;;;6.27;100.00;131228.50;5011535;28;20789;-64
2021/01/22 07:52:25;;;;;;;0.60;0.50;;;5.20;99.90;;;6.37;100.00;132248.16;5012922;28;20448;-63
2021/01/22 07:54:53;;;;;;;0.60;0.57;;;5.20;99.90;;;6.26;100.00;132225.28;5011445;28;20446;-64
2021/01/22 07:57:22;;;;;;;0.60;0.50;;;5.20;99.90;;;6.40;100.00;132921.38;5012059;28;20500;-64
2021/01/22 07:59:49;;;;;;;0.60;0.60;;;5.30;99.90;;;6.41;100.00;133256.91;5010456;28;20519;-63
2021/01/22 08:02:18;;;;;;;0.60;0.50;;;5.30;99.90;;;6.56;100.00;134291.63;5013009;28;20429;-66
2021/01/22 08:04:55;;;;;;;0.60;0.60;;;5.30;99.90;;;6.54;100.00;134621.53;5010922;28;20910;-63
2021/01/22 08:07:37;;;;;;;0.60;0.60;;;5.30;99.90;;;6.48;100.00;135273.25;5009768;28;20819;-64
2021/01/22 08:10:07;;;;;;;0.60;0.60;;;5.40;99.90;;;6.47;100.00;135937.91;5009856;28;20437;-63
2021/01/22 08:12:36;;;;;;;0.60;0.60;;;5.30;99.90;;;6.43;100.00;135929.66;5032480;28;20456;-63
2021/01/22 08:15:21;;;;;;;1.00;1.00;;;5.40;99.90;;;6.31;100.00;136567.19;5003603;28;20463;-64
2021/01/22 08:17:49;;;;;;;0.70;0.70;;;5.40;99.90;;;6.43;100.00;137262.72;5011052;28;20462;-63
2021/01/22 08:20:20;;;;;;;0.60;0.60;;;5.30;99.90;;;6.36;100.00;137579.69;5000528;28;21017;-64
2021/01/22 08:22:52;;;;;;;0.60;0.50;;;5.40;99.90;;;6.63;100.00;137977.81;5005755;28;20544;-63
2021/01/22 08:25:31;;;;;;;0.60;0.50;;;5.40;99.90;;;6.36;100.00;137913.31;5008205;28;20497;-63
2021/01/22 08:28:05;;;;;;;0.60;0.50;;;5.40;99.90;;;6.47;100.00;138273.31;5019056;28;20770;-63
2021/01/22 08:30:34;;;;;;;0.70;0.60;;;5.40;99.90;;;6.62;100.00;138976.91;5019221;28;20802;-64
2021/01/22 08:33:02;;;;;;;0.60;0.50;;;5.40;99.90;;;6.56;100.00;138628.66;5019313;28;20461;-63
2021/01/22 08:35:32;;;;;;;0.60;0.50;;;5.50;99.90;;;6.54;100.00;138957.69;5017446;28;20430;-65
2021/01/22 08:37:59;;;;;;;0.70;0.60;;;5.50;99.90;;;6.62;100.00;139643.53;5008786;28;20545;-63
2021/01/22 08:40:37;;;;;;;0.60;0.50;;;5.60;99.90;;;6.76;100.00;140346.72;5000098;28;20425;-64
2021/01/22 08:43:08;;;;;;;0.60;0.50;;;5.50;99.90;;;6.86;100.00;140368.59;5001967;28;20525;-66
2021/01/22 08:45:35;;;;;;;0.67;0.50;;;5.60;99.90;;;6.62;100.00;140312.72;4999867;28;20500;-64
2021/01/22 08:48:04;;;;;;;0.60;0.60;;;5.60;99.90;;;6.80;100.00;141022.28;4998722;28;20806;-64
2021/01/22 08:50:32;;;;;;;0.67;0.57;;;5.60;99.90;;;6.83;100.00;141029.63;5001217;28;20534;-63
2021/01/22 08:53:09;;;;;;;0.70;0.60;;;5.70;99.90;;;6.78;100.00;141354.03;5013287;28;20441;-64
2021/01/22 08:55:39;;;;;;;0.60;0.60;;;5.70;99.90;;;6.93;100.00;141722.59;5001069;28;20434;-64
2021/01/22 08:58:12;;;;;;;0.60;0.50;;;5.70;99.90;;;6.94;100.00;141725.03;5016393;28;20458;-63
2021/01/22 09:00:40;;;;;;;0.70;0.60;;;5.80;99.90;;;6.93;100.00;142725.66;5018956;28;20925;-64
2021/01/22 09:03:19;;;;;;;0.70;0.50;;;5.90;99.90;;;7.05;100.00;142754.03;5014021;28;20446;-64
2021/01/22 09:05:52;;;;;;;0.70;0.60;;;5.90;99.90;;;7.29;100.00;142812.06;5012385;28;20434;-64
2021/01/22 09:08:21;;;;;;;0.60;0.60;;;5.90;99.90;;;7.10;100.00;142766.38;5019105;28;20934;-64
2021/01/22 09:10:52;;;;;;;0.60;0.60;;;5.90;99.90;;;7.06;100.00;143425.50;5014919;28;20464;-64
2021/01/22 09:13:21;;;;;;;0.70;0.60;;;5.90;99.90;;;7.34;100.00;143828.47;5018857;28;20457;-66
2021/01/22 09:16:01;;;;;;;0.70;0.57;;;6.00;99.90;;;7.33;100.00;144495.47;5016867;28;20453;-64
2021/01/22 09:18:28;;;;;;;0.60;0.50;;;6.00;99.90;;;7.46;100.00;145197.75;5009158;28;20950;-64
2021/01/22 09:21:01;;;;;;;0.60;0.50;;;6.10;99.90;;;7.31;100.00;145161.34;5018603;28;20993;-64
2021/01/22 09:23:29;;;;;;;0.60;0.50;;;6.10;99.90;;;7.59;100.00;145230.41;5011150;28;20534;-64
2021/01/22 09:25:57;;;;;;;0.60;0.60;;;6.10;99.90;;;7.46;100.00;145199.00;5012210;28;20434;-65
2021/01/22 09:28:24;;;;;;;0.70;0.60;;;6.10;99.90;;;7.64;100.00;145913.06;5002220;28;20427;-64
2021/01/22 09:30:51;;;;;;;0.70;0.50;;;6.20;99.90;;;7.74;100.00;145938.28;5012000;28;20446;-66
2021/01/22 09:33:18;;;;;;;0.60;0.60;;;6.30;99.90;;;7.94;100.00;145986.19;5015773;28;20822;-64
2021/01/22 09:35:45;;;;;;;0.70;0.60;;;6.40;99.90;;;8.09;100.00;145353.41;5013172;28;20466;-64
2021/01/22 09:38:13;;;;;;;0.70;0.60;;;6.60;99.90;;;7.95;100.00;144983.06;5015037;28;20457;-64
2021/01/22 09:40:40;;;;;;;0.70;0.60;;;6.60;99.90;;;8.30;100.00;145739.06;4999647;28;20556;-64
2021/01/22 09:43:07;;;;;;;0.70;0.60;;;6.80;99.90;;;8.15;100.00;145368.50;5007059;28;20439;-64
2021/01/22 09:45:35;;;;;;;0.70;0.60;;;6.80;99.90;;;8.49;100.00;145786.94;5015304;28;20445;-64
2021/01/22 09:48:02;;;;;;;0.70;0.60;;;6.80;99.90;;;8.76;100.00;145852.41;5014756;28;20865;-63
2021/01/22 09:50:30;;;;;;;1.40;1.30;;;6.70;99.90;;;8.64;100.00;146496.03;5010516;28;20785;-64
2021/01/22 09:52:57;;;;;;;0.70;0.60;;;6.70;99.90;;;8.35;100.00;146422.63;5009555;28;20493;-64
2021/01/22 09:55:25;;;;;;;0.70;0.60;;;6.70;99.90;;;8.01;100.00;146677.13;5003180;28;21011;-64
2021/01/22 09:57:52;;;;;;;0.70;0.60;;;6.60;99.90;;;8.13;100.00;146707.53;5014941;28;20454;-64
2021/01/22 10:00:19;;;;;;;0.70;0.60;;;6.60;99.90;;;7.91;100.00;146651.78;5013491;28;20521;-63
2021/01/22 10:02:46;;;;;;;0.70;0.60;;;6.70;99.90;;;8.17;100.00;146717.72;5005897;28;20443;-65
2021/01/22 10:05:14;;;;;;;0.70;0.60;;;6.70;99.90;;;8.03;100.00;146680.91;5013428;28;20984;-64
2021/01/22 10:07:42;;;;;;;0.70;0.60;;;6.70;99.90;;;8.13;100.00;146707.53;5013783;28;20467;-67
2021/01/22 10:10:11;;;;;;;0.70;0.60;;;6.80;99.90;;;8.77;100.00;146866.06;5014520;28;20503;-63
2021/01/22 10:12:39;;;;;;;0.70;0.60;;;7.10;99.90;;;8.75;100.00;146860.97;5015311;28;20425;-64
2021/01/22 10:15:08;;;;;;;0.70;0.60;;;7.30;99.90;;;8.87;100.00;146890.13;5010370;28;20461;-64
2021/01/22 10:17:35;;;;;;;1.27;1.17;;;7.40;99.90;;;9.05;100.00;146935.78;5004112;28;20471;-64
2021/01/22 10:20:04;;;;;;;0.70;0.60;;;7.40;99.90;;;9.13;100.00;146956.13;5007456;28;20451;-64
2021/01/22 10:22:31;;;;;;;0.70;0.60;;;7.40;99.90;;;8.99;100.00;146919.34;5004476;28;20542;-65
2021/01/22 10:24:58;;;;;;;0.70;0.60;;;7.50;99.90;;;9.21;100.00;146973.88;5006272;28;20486;-64
2021/01/22 10:27:25;;;;;;;0.80;0.70;;;7.40;99.90;;;9.40;100.00;147023.34;5009945;28;20438;-65
2021/01/22 10:29:53;;;;;;;0.70;0.60;;;7.40;99.90;;;9.39;100.00;147019.56;5013442;28;20464;-64